sensor_id;sensor_type;location;lat;lon;timestamp;temperature;humidity
10788;DHT22;5446;50.826;4.380;2023-02-28T00:00:25;1.30;99.90
10788;DHT22;5446;50.826;4.380;2023-02-28T00:02:51;1.30;99.90
10788;DHT22;5446;50.826;4.380;2023-02-28T00:05:20;1.30;99.90
10788;DHT22;5446;50.826;4.380;2023-02-28T00:07:46;1.20;99.90
10788;DHT22;5446;50.826;4.380;2023-02-28T00:10:14;1.20;99.90
10788;DHT22;5446;50.826;4.380;2023-02-28T00:12:41;1.20;99.90
10788;DHT22;5446;50.826;4.380;2023-02-28T00:15:10;1.20;99.90
10788;DHT22;5446;50.826;4.380;2023-02-28T00:17:37;1.20;99.90
10788;DHT22;5446;50.826;4.380;2023-02-28T00:20:04;1.10;99.90
10788;DHT22;5446;50.826;4.380;2023-02-28T00:22:34;1.10;99.90
10788;DHT22;5446;50.826;4.380;2023-02-28T00:25:00;1.10;99.90
10788;DHT22;5446;50.826;4.380;2023-02-28T00:27:26;1.10;99.90
10788;DHT22;5446;50.826;4.380;2023-02-28T00:29:51;1.10;99.90
10788;DHT22;5446;50.826;4.380;2023-02-28T00:32:19;1.10;99.90
10788;DHT22;5446;50.826;4.380;2023-02-28T00:34:45;1.10;99.90
10788;DHT22;5446;50.826;4.380;2023-02-28T00:37:11;1.10;99.90
10788;DHT22;5446;50.826;4.380;2023-02-28T00:39:40;1.10;99.90
10788;DHT22;5446;50.826;4.380;2023-02-28T00:42:07;1.00;99.90
10788;DHT22;5446;50.826;4.380;2023-02-28T00:44:33;1.00;99.90
10788;DHT22;5446;50.826;4.380;2023-02-28T00:46:59;1.00;99.90
10788;DHT22;5446;50.826;4.380;2023-02-28T00:49:26;1.00;99.90
10788;DHT22;5446;50.826;4.380;2023-02-28T00:51:53;1.00;99.90
10788;DHT22;5446;50.826;4.380;2023-02-28T00:54:20;0.90;99.90
10788;DHT22;5446;50.826;4.380;2023-02-28T00:56:47;0.90;99.90
10788;DHT22;5446;50.826;4.380;2023-02-28T00:59:13;0.90;99.90
10788;DHT22;5446;50.826;4.380;2023-02-28T01:01:40;0.90;99.90
10788;DHT22;5446;50.826;4.380;2023-02-28T01:04:06;0.80;99.90
10788;DHT22;5446;50.826;4.380;2023-02-28T01:06:32;0.80;99.90
10788;DHT22;5446;50.826;4.380;2023-02-28T01:08:58;0.80;99.90
10788;DHT22;5446;50.826;4.380;2023-02-28T01:11:24;0.80;99.90
10788;DHT22;5446;50.826;4.380;2023-02-28T01:13:50;0.80;99.90
10788;DHT22;5446;50.826;4.380;2023-02-28T01:16:16;0.70;99.90
10788;DHT22;5446;50.826;4.380;2023-02-28T01:18:42;0.70;99.90
10788;DHT22;5446;50.826;4.380;2023-02-28T01:21:13;0.70;99.90
10788;DHT22;5446;50.826;4.380;2023-02-28T01:23:40;0.70;99.90
10788;DHT22;5446;50.826;4.380;2023-02-28T01:26:14;0.70;99.90
10788;DHT22;5446;50.826;4.380;2023-02-28T01:28:41;0.70;99.90
10788;DHT22;5446;50.826;4.380;2023-02-28T01:31:07;0.70;99.90
10788;DHT22;5446;50.826;4.380;2023-02-28T01:33:33;0.70;99.90
10788;DHT22;5446;50.826;4.380;2023-02-28T01:38:29;0.60;99.90
10788;DHT22;5446;50.826;4.380;2023-02-28T01:40:55;0.60;99.90
10788;DHT22;5446;50.826;4.380;2023-02-28T01:43:25;0.60;99.90
10788;DHT22;5446;50.826;4.380;2023-02-28T01:45:53;0.60;99.90
10788;DHT22;5446;50.826;4.380;2023-02-28T01:48:23;0.60;99.90
10788;DHT22;5446;50.826;4.380;2023-02-28T01:50:52;0.60;99.90
10788;DHT22;5446;50.826;4.380;2023-02-28T01:53:30;0.60;99.90
10788;DHT22;5446;50.826;4.380;2023-02-28T01:55:57;0.60;99.90
10788;DHT22;5446;50.826;4.380;2023-02-28T01:58:23;0.60;99.90
10788;DHT22;5446;50.826;4.380;2023-02-28T02:00:49;0.60;99.90
10788;DHT22;5446;50.826;4.380;2023-02-28T02:03:17;0.50;99.90
10788;DHT22;5446;50.826;4.380;2023-02-28T02:05:44;0.50;99.90
10788;DHT22;5446;50.826;4.380;2023-02-28T02:08:22;0.50;99.90
10788;DHT22;5446;50.826;4.380;2023-02-28T02:10:51;0.50;99.90
10788;DHT22;5446;50.826;4.380;2023-02-28T02:18:57;0.40;99.90
10788;DHT22;5446;50.826;4.380;2023-02-28T02:38:53;0.20;99.90
10788;DHT22;5446;50.826;4.380;2023-02-28T02:48:49;0.10;99.90
10788;DHT22;5446;50.826;4.380;2023-02-28T02:51:18;0.10;99.90
10788;DHT22;5446;50.826;4.380;2023-02-28T02:53:50;0.10;99.90
10788;DHT22;5446;50.826;4.380;2023-02-28T02:56:19;0.10;99.90
10788;DHT22;5446;50.826;4.380;2023-02-28T02:58:48;0.10;99.90
10788;DHT22;5446;50.826;4.380;2023-02-28T03:01:18;0.10;99.90
10788;DHT22;5446;50.826;4.380;2023-02-28T03:04:09;0.00;99.90
10788;DHT22;5446;50.826;4.380;2023-02-28T03:06:36;0.00;99.90
10788;DHT22;5446;50.826;4.380;2023-02-28T03:09:02;0.00;99.90
10788;DHT22;5446;50.826;4.380;2023-02-28T03:11:28;-0.10;99.90
10788;DHT22;5446;50.826;4.380;2023-02-28T03:16:33;-0.10;99.90
10788;DHT22;5446;50.826;4.380;2023-02-28T03:22:05;-0.10;99.90
10788;DHT22;5446;50.826;4.380;2023-02-28T03:33:16;-0.10;99.90
10788;DHT22;5446;50.826;4.380;2023-02-28T03:35:58;-0.10;99.90
10788;DHT22;5446;50.826;4.380;2023-02-28T03:38:35;-0.20;99.90
10788;DHT22;5446;50.826;4.380;2023-02-28T03:41:19;-0.20;99.90
10788;DHT22;5446;50.826;4.380;2023-02-28T03:47:19;-0.20;99.90
10788;DHT22;5446;50.826;4.380;2023-02-28T03:49:52;-0.20;99.90
10788;DHT22;5446;50.826;4.380;2023-02-28T03:52:20;-0.30;99.90
10788;DHT22;5446;50.826;4.380;2023-02-28T03:54:52;-0.30;99.90
10788;DHT22;5446;50.826;4.380;2023-02-28T04:00:06;-0.30;99.90
10788;DHT22;5446;50.826;4.380;2023-02-28T04:02:34;-0.30;99.90
10788;DHT22;5446;50.826;4.380;2023-02-28T04:05:00;-0.30;99.90
10788;DHT22;5446;50.826;4.380;2023-02-28T04:07:30;-0.30;99.90
10788;DHT22;5446;50.826;4.380;2023-02-28T04:09:56;-0.30;99.90
10788;DHT22;5446;50.826;4.380;2023-02-28T04:12:22;-0.40;99.90
10788;DHT22;5446;50.826;4.380;2023-02-28T04:14:49;-0.40;99.90
10788;DHT22;5446;50.826;4.380;2023-02-28T04:17:15;-0.40;99.90
10788;DHT22;5446;50.826;4.380;2023-02-28T04:19:41;-0.40;99.90
10788;DHT22;5446;50.826;4.380;2023-02-28T04:22:08;-0.40;99.90
10788;DHT22;5446;50.826;4.380;2023-02-28T04:24:34;-0.40;99.90
10788;DHT22;5446;50.826;4.380;2023-02-28T04:27:00;-0.40;99.90
10788;DHT22;5446;50.826;4.380;2023-02-28T04:29:30;-0.40;99.90
10788;DHT22;5446;50.826;4.380;2023-02-28T04:32:00;-0.40;99.90
10788;DHT22;5446;50.826;4.380;2023-02-28T04:34:28;-0.40;99.90
10788;DHT22;5446;50.826;4.380;2023-02-28T04:36:55;-0.40;99.90
10788;DHT22;5446;50.826;4.380;2023-02-28T04:39:22;-0.40;99.90
10788;DHT22;5446;50.826;4.380;2023-02-28T04:41:48;-0.50;99.90
10788;DHT22;5446;50.826;4.380;2023-02-28T04:44:15;-0.50;99.90
10788;DHT22;5446;50.826;4.380;2023-02-28T04:46:43;-0.50;99.90
10788;DHT22;5446;50.826;4.380;2023-02-28T04:49:11;-0.50;99.90
10788;DHT22;5446;50.826;4.380;2023-02-28T04:51:37;-0.50;99.90
10788;DHT22;5446;50.826;4.380;2023-02-28T04:54:03;-0.50;99.90
10788;DHT22;5446;50.826;4.380;2023-02-28T04:56:29;-0.40;99.90
10788;DHT22;5446;50.826;4.380;2023-02-28T04:58:55;-0.40;99.90
10788;DHT22;5446;50.826;4.380;2023-02-28T05:01:26;-0.40;99.90
10788;DHT22;5446;50.826;4.380;2023-02-28T05:03:55;-0.40;99.90
10788;DHT22;5446;50.826;4.380;2023-02-28T05:06:22;-0.40;99.90
10788;DHT22;5446;50.826;4.380;2023-02-28T05:08:49;-0.40;99.90
10788;DHT22;5446;50.826;4.380;2023-02-28T05:11:20;-0.40;99.90
10788;DHT22;5446;50.826;4.380;2023-02-28T05:13:47;-0.30;99.90
10788;DHT22;5446;50.826;4.380;2023-02-28T05:16:13;-0.30;99.90
10788;DHT22;5446;50.826;4.380;2023-02-28T05:18:39;-0.30;99.90
10788;DHT22;5446;50.826;4.380;2023-02-28T05:21:05;-0.20;99.90
10788;DHT22;5446;50.826;4.380;2023-02-28T05:23:31;-0.20;99.90
10788;DHT22;5446;50.826;4.380;2023-02-28T05:25:58;-0.20;99.90
10788;DHT22;5446;50.826;4.380;2023-02-28T05:28:24;-0.20;99.90
10788;DHT22;5446;50.826;4.380;2023-02-28T05:30:49;-0.10;99.90
10788;DHT22;5446;50.826;4.380;2023-02-28T05:33:15;-0.10;99.90
10788;DHT22;5446;50.826;4.380;2023-02-28T05:35:41;0.00;99.90
10788;DHT22;5446;50.826;4.380;2023-02-28T05:38:08;0.00;99.90
10788;DHT22;5446;50.826;4.380;2023-02-28T05:40:34;0.00;99.90
10788;DHT22;5446;50.826;4.380;2023-02-28T05:43:00;-0.10;99.90
10788;DHT22;5446;50.826;4.380;2023-02-28T05:45:26;0.00;99.90
10788;DHT22;5446;50.826;4.380;2023-02-28T05:47:55;0.00;99.90
10788;DHT22;5446;50.826;4.380;2023-02-28T05:50:21;0.00;99.90
10788;DHT22;5446;50.826;4.380;2023-02-28T05:52:51;0.00;99.90
10788;DHT22;5446;50.826;4.380;2023-02-28T05:55:16;0.00;99.90
10788;DHT22;5446;50.826;4.380;2023-02-28T05:57:42;0.00;99.90
10788;DHT22;5446;50.826;4.380;2023-02-28T06:00:09;0.00;99.90
10788;DHT22;5446;50.826;4.380;2023-02-28T06:02:35;0.00;99.90
10788;DHT22;5446;50.826;4.380;2023-02-28T06:05:00;0.10;99.90
10788;DHT22;5446;50.826;4.380;2023-02-28T06:07:26;0.10;99.90
10788;DHT22;5446;50.826;4.380;2023-02-28T06:09:52;0.20;99.90
10788;DHT22;5446;50.826;4.380;2023-02-28T06:12:18;0.20;99.90
10788;DHT22;5446;50.826;4.380;2023-02-28T06:14:43;0.20;99.90
10788;DHT22;5446;50.826;4.380;2023-02-28T06:17:10;0.20;99.90
10788;DHT22;5446;50.826;4.380;2023-02-28T06:19:37;0.20;99.90
10788;DHT22;5446;50.826;4.380;2023-02-28T06:22:04;0.30;99.90
10788;DHT22;5446;50.826;4.380;2023-02-28T06:24:30;0.30;99.90
10788;DHT22;5446;50.826;4.380;2023-02-28T06:26:56;0.30;99.90
10788;DHT22;5446;50.826;4.380;2023-02-28T06:29:24;0.30;99.90
10788;DHT22;5446;50.826;4.380;2023-02-28T06:31:50;0.30;99.90
10788;DHT22;5446;50.826;4.380;2023-02-28T06:34:16;0.30;99.90
10788;DHT22;5446;50.826;4.380;2023-02-28T06:36:42;0.30;99.90
10788;DHT22;5446;50.826;4.380;2023-02-28T06:39:09;0.20;99.90
10788;DHT22;5446;50.826;4.380;2023-02-28T06:41:36;0.30;99.90
10788;DHT22;5446;50.826;4.380;2023-02-28T06:44:05;0.30;99.90
10788;DHT22;5446;50.826;4.380;2023-02-28T06:46:31;0.30;99.90
10788;DHT22;5446;50.826;4.380;2023-02-28T06:48:57;0.40;99.90
10788;DHT22;5446;50.826;4.380;2023-02-28T06:51:23;0.40;99.90
10788;DHT22;5446;50.826;4.380;2023-02-28T06:53:50;0.50;99.90
10788;DHT22;5446;50.826;4.380;2023-02-28T06:56:17;0.50;99.90
10788;DHT22;5446;50.826;4.380;2023-02-28T06:58:46;0.50;99.90
10788;DHT22;5446;50.826;4.380;2023-02-28T07:01:13;0.50;99.90
10788;DHT22;5446;50.826;4.380;2023-02-28T07:03:39;0.70;99.90
10788;DHT22;5446;50.826;4.380;2023-02-28T07:06:05;0.60;99.90
10788;DHT22;5446;50.826;4.380;2023-02-28T07:08:34;0.70;99.90
10788;DHT22;5446;50.826;4.380;2023-02-28T07:11:01;0.80;99.90
10788;DHT22;5446;50.826;4.380;2023-02-28T07:13:27;0.80;99.90
10788;DHT22;5446;50.826;4.380;2023-02-28T07:16:03;0.80;99.90
10788;DHT22;5446;50.826;4.380;2023-02-28T07:18:29;0.80;99.90
10788;DHT22;5446;50.826;4.380;2023-02-28T07:20:55;0.80;99.90
10788;DHT22;5446;50.826;4.380;2023-02-28T07:23:21;0.90;99.90
10788;DHT22;5446;50.826;4.380;2023-02-28T07:25:47;0.90;99.90
10788;DHT22;5446;50.826;4.380;2023-02-28T07:28:14;0.90;99.90
10788;DHT22;5446;50.826;4.380;2023-02-28T07:30:41;0.90;99.90
10788;DHT22;5446;50.826;4.380;2023-02-28T07:33:07;1.00;99.90
10788;DHT22;5446;50.826;4.380;2023-02-28T07:35:33;1.10;99.90
10788;DHT22;5446;50.826;4.380;2023-02-28T07:37:59;1.20;99.90
10788;DHT22;5446;50.826;4.380;2023-02-28T07:40:25;1.20;99.90
10788;DHT22;5446;50.826;4.380;2023-02-28T07:42:51;1.10;99.90
10788;DHT22;5446;50.826;4.380;2023-02-28T07:45:18;1.20;99.90
10788;DHT22;5446;50.826;4.380;2023-02-28T07:47:45;1.10;99.90
10788;DHT22;5446;50.826;4.380;2023-02-28T07:50:13;1.10;99.90
10788;DHT22;5446;50.826;4.380;2023-02-28T07:52:40;1.10;99.90
10788;DHT22;5446;50.826;4.380;2023-02-28T07:55:07;1.20;99.90
10788;DHT22;5446;50.826;4.380;2023-02-28T07:57:33;1.20;99.90
10788;DHT22;5446;50.826;4.380;2023-02-28T07:59:59;1.30;99.90
10788;DHT22;5446;50.826;4.380;2023-02-28T08:02:25;1.40;99.90
10788;DHT22;5446;50.826;4.380;2023-02-28T08:04:51;1.40;99.90
10788;DHT22;5446;50.826;4.380;2023-02-28T08:07:18;1.40;99.90
10788;DHT22;5446;50.826;4.380;2023-02-28T08:09:44;1.50;99.90
10788;DHT22;5446;50.826;4.380;2023-02-28T08:12:11;1.50;99.90
10788;DHT22;5446;50.826;4.380;2023-02-28T08:14:37;1.60;99.90
10788;DHT22;5446;50.826;4.380;2023-02-28T08:17:06;1.70;99.90
10788;DHT22;5446;50.826;4.380;2023-02-28T08:19:32;1.80;99.90
10788;DHT22;5446;50.826;4.380;2023-02-28T08:21:58;1.80;99.90
10788;DHT22;5446;50.826;4.380;2023-02-28T08:24:24;1.80;99.90
10788;DHT22;5446;50.826;4.380;2023-02-28T08:26:50;1.80;99.90
10788;DHT22;5446;50.826;4.380;2023-02-28T08:29:16;2.00;99.90
10788;DHT22;5446;50.826;4.380;2023-02-28T08:31:42;2.10;99.90
10788;DHT22;5446;50.826;4.380;2023-02-28T08:34:12;2.10;99.90
10788;DHT22;5446;50.826;4.380;2023-02-28T08:36:38;2.20;99.90
10788;DHT22;5446;50.826;4.380;2023-02-28T08:39:05;2.20;99.90
10788;DHT22;5446;50.826;4.380;2023-02-28T08:41:31;2.10;99.90
10788;DHT22;5446;50.826;4.380;2023-02-28T08:43:57;2.30;99.90
10788;DHT22;5446;50.826;4.380;2023-02-28T08:46:23;2.20;99.90
10788;DHT22;5446;50.826;4.380;2023-02-28T08:48:54;2.20;99.90
10788;DHT22;5446;50.826;4.380;2023-02-28T08:51:21;2.20;99.90
10788;DHT22;5446;50.826;4.380;2023-02-28T08:53:52;2.20;99.90
10788;DHT22;5446;50.826;4.380;2023-02-28T08:56:19;2.00;99.90
10788;DHT22;5446;50.826;4.380;2023-02-28T08:58:51;2.10;99.90
10788;DHT22;5446;50.826;4.380;2023-02-28T09:01:20;2.20;99.90
10788;DHT22;5446;50.826;4.380;2023-02-28T09:03:49;2.20;99.90
10788;DHT22;5446;50.826;4.380;2023-02-28T09:06:16;2.20;99.90
10788;DHT22;5446;50.826;4.380;2023-02-28T09:08:42;2.20;99.90
10788;DHT22;5446;50.826;4.380;2023-02-28T09:11:09;2.10;99.90
10788;DHT22;5446;50.826;4.380;2023-02-28T09:13:35;2.10;99.90
10788;DHT22;5446;50.826;4.380;2023-02-28T09:16:03;2.20;99.90
10788;DHT22;5446;50.826;4.380;2023-02-28T09:18:29;2.30;99.90
10788;DHT22;5446;50.826;4.380;2023-02-28T09:20:55;2.30;99.90
10788;DHT22;5446;50.826;4.380;2023-02-28T09:23:21;2.40;99.90
10788;DHT22;5446;50.826;4.380;2023-02-28T09:25:52;2.40;99.90
10788;DHT22;5446;50.826;4.380;2023-02-28T09:28:19;2.30;99.90
10788;DHT22;5446;50.826;4.380;2023-02-28T09:30:47;2.30;99.90
10788;DHT22;5446;50.826;4.380;2023-02-28T09:33:14;2.30;99.90
10788;DHT22;5446;50.826;4.380;2023-02-28T09:35:40;2.30;99.90
10788;DHT22;5446;50.826;4.380;2023-02-28T09:38:06;2.30;99.90
10788;DHT22;5446;50.826;4.380;2023-02-28T09:40:38;2.40;99.90
10788;DHT22;5446;50.826;4.380;2023-02-28T09:43:09;2.50;99.90
10788;DHT22;5446;50.826;4.380;2023-02-28T09:45:39;2.50;99.90
10788;DHT22;5446;50.826;4.380;2023-02-28T09:48:16;2.60;99.90
10788;DHT22;5446;50.826;4.380;2023-02-28T09:53:44;2.80;99.90
10788;DHT22;5446;50.826;4.380;2023-02-28T09:56:36;2.70;99.90
10788;DHT22;5446;50.826;4.380;2023-02-28T09:59:18;2.70;99.90
10788;DHT22;5446;50.826;4.380;2023-02-28T10:04:56;2.70;99.90
10788;DHT22;5446;50.826;4.380;2023-02-28T10:10:22;2.70;99.90
10788;DHT22;5446;50.826;4.380;2023-02-28T10:12:53;2.70;99.90
10788;DHT22;5446;50.826;4.380;2023-02-28T10:15:22;2.80;99.90
10788;DHT22;5446;50.826;4.380;2023-02-28T10:17:54;2.90;99.90
10788;DHT22;5446;50.826;4.380;2023-02-28T10:20:21;2.90;99.90
10788;DHT22;5446;50.826;4.380;2023-02-28T10:25:37;2.90;99.90
10788;DHT22;5446;50.826;4.380;2023-02-28T10:28:15;2.90;99.90
10788;DHT22;5446;50.826;4.380;2023-02-28T10:30:48;2.90;99.90
10788;DHT22;5446;50.826;4.380;2023-02-28T10:35:48;3.00;99.90
10788;DHT22;5446;50.826;4.380;2023-02-28T10:38:28;3.10;99.90
10788;DHT22;5446;50.826;4.380;2023-02-28T10:41:16;3.10;99.90
10788;DHT22;5446;50.826;4.380;2023-02-28T10:43:44;3.10;99.90
10788;DHT22;5446;50.826;4.380;2023-02-28T10:46:18;3.10;99.90
10788;DHT22;5446;50.826;4.380;2023-02-28T10:49:05;3.10;99.90
10788;DHT22;5446;50.826;4.380;2023-02-28T10:51:37;3.10;99.90
10788;DHT22;5446;50.826;4.380;2023-02-28T10:54:04;3.10;99.90
10788;DHT22;5446;50.826;4.380;2023-02-28T10:56:31;3.20;99.90
10788;DHT22;5446;50.826;4.380;2023-02-28T11:01:41;3.50;99.90
10788;DHT22;5446;50.826;4.380;2023-02-28T11:04:34;3.60;99.90
10788;DHT22;5446;50.826;4.380;2023-02-28T11:07:20;3.60;99.90
10788;DHT22;5446;50.826;4.380;2023-02-28T11:09:55;3.50;99.90
10788;DHT22;5446;50.826;4.380;2023-02-28T11:12:39;3.40;99.90
10788;DHT22;5446;50.826;4.380;2023-02-28T11:15:34;3.50;99.90
10788;DHT22;5446;50.826;4.380;2023-02-28T11:20:38;3.60;99.90
10788;DHT22;5446;50.826;4.380;2023-02-28T11:23:05;3.40;99.90
10788;DHT22;5446;50.826;4.380;2023-02-28T11:25:37;3.30;99.90
10788;DHT22;5446;50.826;4.380;2023-02-28T11:28:06;3.40;99.90
10788;DHT22;5446;50.826;4.380;2023-02-28T11:30:41;3.50;99.90
10788;DHT22;5446;50.826;4.380;2023-02-28T11:36:27;3.50;99.90
10788;DHT22;5446;50.826;4.380;2023-02-28T11:38:54;3.60;99.90
10788;DHT22;5446;50.826;4.380;2023-02-28T11:52:43;3.90;99.90
10788;DHT22;5446;50.826;4.380;2023-02-28T12:01:00;3.90;99.90
10788;DHT22;5446;50.826;4.380;2023-02-28T12:04:11;3.80;99.90
10788;DHT22;5446;50.826;4.380;2023-02-28T12:06:23;3.80;99.90
10788;DHT22;5446;50.826;4.380;2023-02-28T12:19:35;4.00;99.90
10788;DHT22;5446;50.826;4.380;2023-02-28T12:22:22;4.00;99.90
10788;DHT22;5446;50.826;4.380;2023-02-28T12:27:46;4.30;99.90
10788;DHT22;5446;50.826;4.380;2023-02-28T12:30:19;4.50;99.90
10788;DHT22;5446;50.826;4.380;2023-02-28T12:32:58;4.60;99.90
10788;DHT22;5446;50.826;4.380;2023-02-28T12:35:46;4.30;99.90
10788;DHT22;5446;50.826;4.380;2023-02-28T12:38:27;4.40;99.90
10788;DHT22;5446;50.826;4.380;2023-02-28T12:41:17;4.40;99.90
10788;DHT22;5446;50.826;4.380;2023-02-28T12:43:55;4.60;99.90
10788;DHT22;5446;50.826;4.380;2023-02-28T12:46:36;4.60;99.90
10788;DHT22;5446;50.826;4.380;2023-02-28T12:49:10;4.50;99.90
10788;DHT22;5446;50.826;4.380;2023-02-28T12:51:37;4.50;99.90
10788;DHT22;5446;50.826;4.380;2023-02-28T12:57:09;4.50;99.90
10788;DHT22;5446;50.826;4.380;2023-02-28T12:59:39;4.50;99.90
10788;DHT22;5446;50.826;4.380;2023-02-28T13:10:48;4.70;99.90
10788;DHT22;5446;50.826;4.380;2023-02-28T13:13:25;4.60;99.90
10788;DHT22;5446;50.826;4.380;2023-02-28T13:16:05;4.60;99.90
10788;DHT22;5446;50.826;4.380;2023-02-28T13:21:07;4.50;99.90
10788;DHT22;5446;50.826;4.380;2023-02-28T13:23:57;4.60;99.90
10788;DHT22;5446;50.826;4.380;2023-02-28T13:29:01;4.60;99.90
10788;DHT22;5446;50.826;4.380;2023-02-28T13:31:27;4.50;99.90
10788;DHT22;5446;50.826;4.380;2023-02-28T13:36:26;4.60;99.90
10788;DHT22;5446;50.826;4.380;2023-02-28T13:38:56;4.60;99.90
10788;DHT22;5446;50.826;4.380;2023-02-28T13:57:52;4.80;99.90
10788;DHT22;5446;50.826;4.380;2023-02-28T14:08:34;4.80;99.90
10788;DHT22;5446;50.826;4.380;2023-02-28T14:11:06;4.80;99.90
10788;DHT22;5446;50.826;4.380;2023-02-28T14:13:45;4.90;99.90
10788;DHT22;5446;50.826;4.380;2023-02-28T14:16:20;4.90;99.90
10788;DHT22;5446;50.826;4.380;2023-02-28T14:18:56;4.60;99.90
10788;DHT22;5446;50.826;4.380;2023-02-28T14:21:30;4.60;99.90
10788;DHT22;5446;50.826;4.380;2023-02-28T14:24:29;4.60;99.90
10788;DHT22;5446;50.826;4.380;2023-02-28T14:37:44;4.60;99.90
10788;DHT22;5446;50.826;4.380;2023-02-28T14:40:32;4.60;99.90
10788;DHT22;5446;50.826;4.380;2023-02-28T14:43:04;4.70;99.90
10788;DHT22;5446;50.826;4.380;2023-02-28T14:45:32;4.70;99.90
10788;DHT22;5446;50.826;4.380;2023-02-28T14:48:00;4.70;99.90
10788;DHT22;5446;50.826;4.380;2023-02-28T14:50:30;4.80;99.90
10788;DHT22;5446;50.826;4.380;2023-02-28T14:52:57;4.70;99.90
10788;DHT22;5446;50.826;4.380;2023-02-28T14:55:34;4.80;99.90
10788;DHT22;5446;50.826;4.380;2023-02-28T14:58:03;4.80;99.90
10788;DHT22;5446;50.826;4.380;2023-02-28T15:00:33;4.90;99.90
10788;DHT22;5446;50.826;4.380;2023-02-28T15:03:01;4.80;99.90
10788;DHT22;5446;50.826;4.380;2023-02-28T15:05:32;4.80;99.90
10788;DHT22;5446;50.826;4.380;2023-02-28T15:10:33;4.90;99.90
10788;DHT22;5446;50.826;4.380;2023-02-28T15:13:02;4.90;99.90
10788;DHT22;5446;50.826;4.380;2023-02-28T15:16:45;4.80;99.90
10788;DHT22;5446;50.826;4.380;2023-02-28T15:18:48;4.80;99.90
10788;DHT22;5446;50.826;4.380;2023-02-28T15:21:20;4.90;99.90
10788;DHT22;5446;50.826;4.380;2023-02-28T15:23:51;4.90;99.90
10788;DHT22;5446;50.826;4.380;2023-02-28T15:26:21;4.80;99.90
10788;DHT22;5446;50.826;4.380;2023-02-28T15:28:51;4.80;99.90
10788;DHT22;5446;50.826;4.380;2023-02-28T15:31:45;4.90;99.90
10788;DHT22;5446;50.826;4.380;2023-02-28T15:37:00;4.90;99.90
10788;DHT22;5446;50.826;4.380;2023-02-28T15:39:28;4.90;99.90
10788;DHT22;5446;50.826;4.380;2023-02-28T15:42:18;5.00;99.90
10788;DHT22;5446;50.826;4.380;2023-02-28T15:44:44;4.90;99.90
10788;DHT22;5446;50.826;4.380;2023-02-28T15:47:22;4.80;99.90
10788;DHT22;5446;50.826;4.380;2023-02-28T15:49:56;4.90;99.90
10788;DHT22;5446;50.826;4.380;2023-02-28T15:52:28;4.90;99.90
10788;DHT22;5446;50.826;4.380;2023-02-28T15:54:54;4.90;99.90
10788;DHT22;5446;50.826;4.380;2023-02-28T15:57:25;4.90;99.90
10788;DHT22;5446;50.826;4.380;2023-02-28T15:59:59;4.90;99.90
10788;DHT22;5446;50.826;4.380;2023-02-28T16:02:38;5.00;99.90
10788;DHT22;5446;50.826;4.380;2023-02-28T16:07:38;4.90;99.90
10788;DHT22;5446;50.826;4.380;2023-02-28T16:10:05;5.00;99.90
10788;DHT22;5446;50.826;4.380;2023-02-28T16:12:34;5.00;99.90
10788;DHT22;5446;50.826;4.380;2023-02-28T16:15:03;4.90;99.90
10788;DHT22;5446;50.826;4.380;2023-02-28T16:17:35;4.70;99.90
10788;DHT22;5446;50.826;4.380;2023-02-28T16:20:13;4.70;99.90
10788;DHT22;5446;50.826;4.380;2023-02-28T16:22:39;4.70;99.90
10788;DHT22;5446;50.826;4.380;2023-02-28T16:25:11;4.80;99.90
10788;DHT22;5446;50.826;4.380;2023-02-28T16:27:37;4.60;99.90
10788;DHT22;5446;50.826;4.380;2023-02-28T16:30:05;4.60;99.90
10788;DHT22;5446;50.826;4.380;2023-02-28T16:32:34;4.60;99.90
10788;DHT22;5446;50.826;4.380;2023-02-28T16:35:00;4.60;99.90
10788;DHT22;5446;50.826;4.380;2023-02-28T16:37:27;4.60;99.90
10788;DHT22;5446;50.826;4.380;2023-02-28T16:39:54;4.60;99.90
10788;DHT22;5446;50.826;4.380;2023-02-28T16:42:27;4.50;99.90
10788;DHT22;5446;50.826;4.380;2023-02-28T16:44:54;4.50;99.90
10788;DHT22;5446;50.826;4.380;2023-02-28T16:47:21;4.50;99.90
10788;DHT22;5446;50.826;4.380;2023-02-28T16:49:47;4.50;99.90
10788;DHT22;5446;50.826;4.380;2023-02-28T16:52:13;4.50;99.90
10788;DHT22;5446;50.826;4.380;2023-02-28T16:54:40;4.50;99.90
10788;DHT22;5446;50.826;4.380;2023-02-28T16:57:07;4.50;99.90
10788;DHT22;5446;50.826;4.380;2023-02-28T16:59:38;4.40;99.90
10788;DHT22;5446;50.826;4.380;2023-02-28T17:02:11;4.40;99.90
10788;DHT22;5446;50.826;4.380;2023-02-28T17:04:37;4.30;99.90
10788;DHT22;5446;50.826;4.380;2023-02-28T17:07:03;4.30;99.90
10788;DHT22;5446;50.826;4.380;2023-02-28T17:09:29;4.30;99.90
10788;DHT22;5446;50.826;4.380;2023-02-28T17:11:55;4.20;99.90
10788;DHT22;5446;50.826;4.380;2023-02-28T17:14:22;4.10;99.90
10788;DHT22;5446;50.826;4.380;2023-02-28T17:16:48;4.10;99.90
10788;DHT22;5446;50.826;4.380;2023-02-28T17:19:15;4.10;99.90
10788;DHT22;5446;50.826;4.380;2023-02-28T17:21:42;4.00;99.90
10788;DHT22;5446;50.826;4.380;2023-02-28T17:24:09;4.00;99.90
10788;DHT22;5446;50.826;4.380;2023-02-28T17:26:41;4.00;99.90
10788;DHT22;5446;50.826;4.380;2023-02-28T17:29:16;3.90;99.90
10788;DHT22;5446;50.826;4.380;2023-02-28T17:31:42;3.90;99.90
10788;DHT22;5446;50.826;4.380;2023-02-28T17:34:08;3.80;99.90
10788;DHT22;5446;50.826;4.380;2023-02-28T17:36:35;3.80;99.90
10788;DHT22;5446;50.826;4.380;2023-02-28T17:39:03;3.70;99.90
10788;DHT22;5446;50.826;4.380;2023-02-28T17:41:29;3.70;99.90
10788;DHT22;5446;50.826;4.380;2023-02-28T17:43:56;3.70;99.90
10788;DHT22;5446;50.826;4.380;2023-02-28T17:46:23;3.70;99.90
10788;DHT22;5446;50.826;4.380;2023-02-28T17:48:51;3.60;99.90
10788;DHT22;5446;50.826;4.380;2023-02-28T17:51:18;3.50;99.90
10788;DHT22;5446;50.826;4.380;2023-02-28T17:53:45;3.50;99.90
10788;DHT22;5446;50.826;4.380;2023-02-28T17:56:19;3.50;99.90
10788;DHT22;5446;50.826;4.380;2023-02-28T17:58:47;3.50;99.90
10788;DHT22;5446;50.826;4.380;2023-02-28T18:01:13;3.40;99.90
10788;DHT22;5446;50.826;4.380;2023-02-28T18:03:39;3.40;99.90
10788;DHT22;5446;50.826;4.380;2023-02-28T18:06:05;3.40;99.90
10788;DHT22;5446;50.826;4.380;2023-02-28T18:08:32;3.40;99.90
10788;DHT22;5446;50.826;4.380;2023-02-28T18:11:01;3.30;99.90
10788;DHT22;5446;50.826;4.380;2023-02-28T18:13:26;3.40;99.90
10788;DHT22;5446;50.826;4.380;2023-02-28T18:15:55;3.40;99.90
10788;DHT22;5446;50.826;4.380;2023-02-28T18:18:21;3.30;99.90
10788;DHT22;5446;50.826;4.380;2023-02-28T18:20:47;3.40;99.90
10788;DHT22;5446;50.826;4.380;2023-02-28T18:23:15;3.30;99.90
10788;DHT22;5446;50.826;4.380;2023-02-28T18:25:42;3.30;99.90
10788;DHT22;5446;50.826;4.380;2023-02-28T18:28:08;3.20;99.90
10788;DHT22;5446;50.826;4.380;2023-02-28T18:30:36;3.30;99.90
10788;DHT22;5446;50.826;4.380;2023-02-28T18:33:02;3.20;99.90
10788;DHT22;5446;50.826;4.380;2023-02-28T18:35:29;3.30;99.90
10788;DHT22;5446;50.826;4.380;2023-02-28T18:38:06;3.30;99.90
10788;DHT22;5446;50.826;4.380;2023-02-28T18:40:32;3.20;99.90
10788;DHT22;5446;50.826;4.380;2023-02-28T18:42:58;3.20;99.90
10788;DHT22;5446;50.826;4.380;2023-02-28T18:45:24;3.20;99.90
10788;DHT22;5446;50.826;4.380;2023-02-28T18:47:50;3.20;99.90
10788;DHT22;5446;50.826;4.380;2023-02-28T18:50:16;3.10;99.90
10788;DHT22;5446;50.826;4.380;2023-02-28T18:52:42;3.20;99.90
10788;DHT22;5446;50.826;4.380;2023-02-28T18:55:08;3.10;99.90
10788;DHT22;5446;50.826;4.380;2023-02-28T18:57:35;3.10;99.90
10788;DHT22;5446;50.826;4.380;2023-02-28T19:00:02;3.10;99.90
10788;DHT22;5446;50.826;4.380;2023-02-28T19:02:28;3.10;99.90